createdAt,value
2018-06-12T00:00:04.346Z,0.00
2018-06-12T00:01:04.344Z,0.00
2018-06-12T00:02:04.342Z,0.00
2018-06-12T00:03:04.338Z,0.00
2018-06-12T00:04:04.337Z,0.00
2018-06-12T00:05:04.337Z,0.00
2018-06-12T00:06:04.345Z,0.00
2018-06-12T00:07:04.340Z,0.00
2018-06-12T00:08:04.342Z,0.00
2018-06-12T00:09:04.337Z,0.00
2018-06-12T00:10:04.333Z,0.00
2018-06-12T00:11:04.330Z,0.00
2018-06-12T00:12:04.335Z,0.00
2018-06-12T00:13:04.340Z,0.00
2018-06-12T00:14:04.329Z,0.00
2018-06-12T00:15:04.327Z,0.00
2018-06-12T00:16:04.324Z,0.00
2018-06-12T00:17:04.326Z,0.00
2018-06-12T00:18:04.329Z,0.00
2018-06-12T00:19:04.329Z,0.00
2018-06-12T00:20:04.327Z,0.00
2018-06-12T00:21:04.328Z,0.00
2018-06-12T00:22:04.320Z,0.00
2018-06-12T00:23:04.322Z,0.00
2018-06-12T00:24:04.317Z,0.00
2018-06-12T00:25:04.317Z,0.00
2018-06-12T00:26:04.320Z,0.00
2018-06-12T00:27:04.318Z,0.00
2018-06-12T00:28:04.314Z,0.00
2018-06-12T00:29:04.313Z,0.00
2018-06-12T00:30:04.316Z,0.00
2018-06-12T00:31:04.315Z,0.00
2018-06-12T00:32:04.314Z,0.00
2018-06-12T00:33:04.314Z,0.00
2018-06-12T00:34:04.311Z,0.00
2018-06-12T00:35:04.306Z,0.00
2018-06-12T00:36:04.304Z,0.00
2018-06-12T00:37:04.304Z,0.00
2018-06-12T00:38:04.307Z,0.00
2018-06-12T00:39:04.306Z,0.00
2018-06-12T00:40:04.304Z,0.00
2018-06-12T00:41:04.303Z,0.00
2018-06-12T00:42:04.300Z,0.00
2018-06-12T00:43:04.298Z,0.00
2018-06-12T00:44:04.299Z,0.00
2018-06-12T00:45:04.299Z,0.00
2018-06-12T00:46:04.294Z,0.00
2018-06-12T00:47:04.290Z,0.00
2018-06-12T00:48:04.289Z,0.00
2018-06-12T00:49:04.290Z,0.00
2018-06-12T00:50:04.292Z,0.00
2018-06-12T00:51:04.292Z,0.00
2018-06-12T00:52:04.289Z,0.00
2018-06-12T00:53:04.288Z,0.00
2018-06-12T00:54:04.282Z,0.00
2018-06-12T00:55:04.280Z,0.00
2018-06-12T00:56:04.283Z,0.00
2018-06-12T00:57:04.278Z,0.00
2018-06-12T00:58:04.282Z,0.00
2018-06-12T00:59:04.280Z,0.00
2018-06-12T01:00:04.273Z,0.00
2018-06-12T01:01:04.275Z,0.00
2018-06-12T01:02:04.282Z,0.00
2018-06-12T01:03:04.275Z,0.00
2018-06-12T01:04:04.273Z,0.00
2018-06-12T01:05:04.271Z,0.00
2018-06-12T01:06:04.267Z,0.00
2018-06-12T01:07:04.263Z,0.00
2018-06-12T01:08:04.262Z,0.00
2018-06-12T01:09:04.265Z,0.00
2018-06-12T01:10:04.264Z,0.00
2018-06-12T01:11:04.261Z,0.00
2018-06-12T01:12:04.261Z,0.00
2018-06-12T01:13:04.260Z,0.00
2018-06-12T01:14:04.253Z,0.00
2018-06-12T01:15:04.252Z,0.00
2018-06-12T01:16:04.255Z,0.00
2018-06-12T01:17:04.255Z,0.00
2018-06-12T01:18:04.248Z,0.00
2018-06-12T01:19:04.252Z,0.00
2018-06-12T01:20:04.244Z,0.00
2018-06-12T01:21:04.245Z,0.00
2018-06-12T01:22:04.246Z,0.00
2018-06-12T01:23:04.270Z,0.00
2018-06-12T01:24:04.243Z,0.00
2018-06-12T01:25:04.244Z,0.00
2018-06-12T01:26:04.238Z,0.00
2018-06-12T01:27:04.234Z,0.00
2018-06-12T01:28:04.235Z,0.00
2018-06-12T01:29:04.232Z,0.00
2018-06-12T01:30:04.236Z,0.00
2018-06-12T01:31:04.235Z,0.00
2018-06-12T01:32:04.227Z,0.00
2018-06-12T01:33:04.226Z,0.00
2018-06-12T01:34:04.231Z,0.00
2018-06-12T01:35:04.227Z,0.00
2018-06-12T01:36:04.225Z,0.00
2018-06-12T01:37:04.225Z,0.00
2018-06-12T01:38:04.218Z,0.00
2018-06-12T01:39:04.216Z,0.00
2018-06-12T01:40:04.216Z,0.00
2018-06-12T01:41:04.214Z,0.00
2018-06-12T01:42:04.219Z,0.00
2018-06-12T01:43:04.214Z,0.00
2018-06-12T01:44:04.214Z,0.00
2018-06-12T01:45:04.212Z,0.00
2018-06-12T01:46:04.206Z,0.00
2018-06-12T01:47:04.206Z,0.00
2018-06-12T01:48:04.208Z,0.00
2018-06-12T01:49:04.207Z,0.00
2018-06-12T01:50:04.200Z,0.00
2018-06-12T01:51:04.200Z,0.00
2018-06-12T01:52:04.196Z,0.00
2018-06-12T01:53:04.195Z,0.00
2018-06-12T01:54:04.199Z,0.00
2018-06-12T01:55:04.196Z,0.00
2018-06-12T01:56:04.199Z,0.00
2018-06-12T01:57:04.193Z,0.00
2018-06-12T01:58:04.187Z,0.00
2018-06-12T01:59:04.185Z,0.00
2018-06-12T02:00:04.186Z,0.00
2018-06-12T02:01:04.183Z,0.00
2018-06-12T02:02:04.185Z,0.00
2018-06-12T02:03:04.182Z,0.00
2018-06-12T02:04:04.176Z,0.00
2018-06-12T02:05:04.175Z,0.00
2018-06-12T02:06:04.179Z,0.00
2018-06-12T02:07:04.175Z,0.00
2018-06-12T02:08:04.177Z,0.00
2018-06-12T02:09:04.174Z,0.00
2018-06-12T02:13:31.250Z,0.00
2018-06-12T02:14:31.284Z,0.00
2018-06-12T02:15:31.242Z,0.00
2018-06-12T02:16:31.239Z,0.00
2018-06-12T02:17:31.238Z,0.00
2018-06-12T02:18:31.240Z,0.00
2018-06-12T02:19:31.238Z,0.00
2018-06-12T02:20:31.232Z,0.00
2018-06-12T02:21:31.231Z,0.00
2018-06-12T02:22:31.234Z,0.00
2018-06-12T02:23:31.231Z,0.00
2018-06-12T02:24:31.230Z,0.00
2018-06-12T02:25:31.228Z,0.00
2018-06-12T02:26:31.222Z,0.00
2018-06-12T02:27:31.220Z,0.00
2018-06-12T02:28:31.221Z,0.00
2018-06-12T02:29:31.216Z,0.00
2018-06-12T02:30:31.220Z,0.00
2018-06-12T02:31:31.218Z,0.00
2018-06-12T02:32:31.214Z,0.00
2018-06-12T02:33:31.213Z,0.00
2018-06-12T02:34:31.207Z,0.00
2018-06-12T02:35:31.204Z,0.00
2018-06-12T02:36:31.210Z,0.00
2018-06-12T02:37:31.205Z,0.00
2018-06-12T02:38:31.201Z,0.00
2018-06-12T02:39:31.197Z,4.00
2018-06-12T02:40:31.195Z,4.00
2018-06-12T02:41:31.195Z,4.00
2018-06-12T02:42:31.196Z,0.00
2018-06-12T02:43:31.194Z,4.00
2018-06-12T02:44:31.206Z,4.00
2018-06-12T02:45:31.191Z,4.00
2018-06-12T02:46:31.184Z,4.00
2018-06-12T02:47:31.184Z,4.00
2018-06-12T02:48:31.180Z,4.00
2018-06-12T02:49:31.178Z,4.00
2018-06-12T02:50:31.181Z,8.00
2018-06-12T02:51:31.178Z,8.00
2018-06-12T02:52:31.172Z,8.00
2018-06-12T02:53:31.170Z,8.00
2018-06-12T02:54:31.173Z,12.00
2018-06-12T02:55:31.179Z,12.00
2018-06-12T02:56:31.172Z,12.00
2018-06-12T02:57:31.169Z,16.00
2018-06-12T02:58:31.161Z,16.00
2018-06-12T02:59:31.159Z,20.00
2018-06-12T03:00:31.158Z,20.00
2018-06-12T03:01:31.163Z,20.00
2018-06-12T03:02:31.158Z,24.00
2018-06-12T03:03:31.160Z,28.00
2018-06-12T03:04:31.152Z,32.00
2018-06-12T03:05:31.156Z,32.00
2018-06-12T03:06:31.145Z,36.00
2018-06-12T03:07:31.142Z,40.00
2018-06-12T03:08:31.146Z,44.00
2018-06-12T03:09:31.170Z,48.00
2018-06-12T03:10:31.145Z,56.00
2018-06-12T03:11:31.133Z,56.00
2018-06-12T03:12:31.146Z,60.00
2018-06-12T03:13:31.130Z,64.00
2018-06-12T03:14:31.139Z,68.00
2018-06-12T03:15:31.135Z,76.00
2018-06-12T03:16:31.134Z,76.00
2018-06-12T03:17:31.125Z,80.00
2018-06-12T03:18:31.121Z,84.00
2018-06-12T03:19:31.117Z,84.00
2018-06-12T03:20:31.114Z,84.00
2018-06-12T03:21:31.113Z,92.00
2018-06-12T03:22:31.115Z,100.00
2018-06-12T03:23:31.113Z,100.00
2018-06-12T03:24:31.104Z,100.00
2018-06-12T03:25:31.105Z,108.00
2018-06-12T03:26:31.108Z,116.00
2018-06-12T03:27:31.104Z,124.00
2018-06-12T03:28:31.102Z,128.00
2018-06-12T03:29:31.101Z,136.00
2018-06-12T03:30:31.100Z,144.00
2018-06-12T03:31:31.091Z,152.00
2018-06-12T03:32:31.088Z,164.00
2018-06-12T03:33:31.086Z,168.00
2018-06-12T03:34:31.088Z,184.00
2018-06-12T03:35:31.086Z,204.00
2018-06-12T03:36:31.085Z,220.00
2018-06-12T03:37:31.083Z,236.00
2018-06-12T03:38:31.076Z,248.00
2018-06-12T03:39:31.080Z,252.00
2018-06-12T03:40:31.076Z,256.00
2018-06-12T03:41:31.074Z,276.00
2018-06-12T03:42:31.066Z,300.00
2018-06-12T03:43:31.066Z,320.00
2018-06-12T03:44:31.062Z,336.00
2018-06-12T03:45:31.059Z,348.00
2018-06-12T03:46:31.062Z,356.00
2018-06-12T03:47:31.059Z,376.00
2018-06-12T03:48:31.058Z,376.00
2018-06-12T03:49:31.056Z,384.00
2018-06-12T03:50:31.049Z,384.00
2018-06-12T03:51:31.046Z,400.00
2018-06-12T03:52:31.044Z,420.00
2018-06-12T03:53:31.043Z,436.00
2018-06-12T03:54:31.046Z,456.00
2018-06-12T03:55:31.042Z,468.00
2018-06-12T03:56:31.035Z,480.00
2018-06-12T03:57:31.043Z,496.00
2018-06-12T03:58:31.036Z,508.00
2018-06-12T03:59:31.034Z,520.00
2018-06-12T04:00:31.031Z,528.00
2018-06-12T04:01:31.030Z,524.00
2018-06-12T04:02:31.023Z,544.00
2018-06-12T04:03:31.020Z,560.00
2018-06-12T04:04:31.018Z,564.00
2018-06-12T04:05:31.015Z,564.00
2018-06-12T04:06:31.018Z,592.00
2018-06-12T04:07:31.015Z,592.00
2018-06-12T04:08:31.014Z,572.00
2018-06-12T04:09:31.018Z,568.00
2018-06-12T04:10:31.005Z,556.00
2018-06-12T04:11:31.002Z,524.00
2018-06-12T04:12:31.005Z,516.00
2018-06-12T04:13:31.003Z,528.00
2018-06-12T04:14:30.996Z,556.00
2018-06-12T04:15:30.992Z,592.00
2018-06-12T04:16:30.992Z,624.00
2018-06-12T04:17:30.989Z,656.00
2018-06-12T04:18:30.990Z,712.00
2018-06-12T04:19:30.988Z,756.00
2018-06-12T04:20:31.007Z,784.00
2018-06-12T04:21:30.984Z,832.00
2018-06-12T04:22:30.978Z,896.00
2018-06-12T04:23:30.976Z,964.00
2018-06-12T04:24:30.972Z,1032.00
2018-06-12T04:25:30.971Z,1112.00
2018-06-12T04:26:30.973Z,1200.00
2018-06-12T04:27:30.971Z,1252.00
2018-06-12T04:28:30.964Z,1296.00
2018-06-12T04:29:30.961Z,1376.00
2018-06-12T04:30:30.965Z,1412.00
2018-06-12T04:31:30.961Z,1644.00
2018-06-12T04:32:30.960Z,1692.00
2018-06-12T04:33:30.959Z,1688.00
2018-06-12T04:34:30.952Z,1556.00
2018-06-12T04:35:30.951Z,1416.00
2018-06-12T04:36:30.947Z,1388.00
2018-06-12T04:37:30.947Z,1468.00
2018-06-12T04:38:30.949Z,1344.00
2018-06-12T04:39:30.946Z,1204.00
2018-06-12T04:40:30.943Z,1256.00
2018-06-12T04:41:30.942Z,1268.00
2018-06-12T04:42:30.936Z,1248.00
2018-06-12T04:43:30.933Z,1208.00
2018-06-12T04:44:30.935Z,1244.00
2018-06-12T04:45:30.939Z,1228.00
2018-06-12T04:46:30.928Z,1160.00
2018-06-12T04:47:30.925Z,1200.00
2018-06-12T04:48:30.924Z,1324.00
2018-06-12T04:49:30.922Z,1444.00
2018-06-12T04:50:30.925Z,1572.00
2018-06-12T04:51:30.922Z,1680.00
2018-06-12T04:52:30.920Z,1768.00
2018-06-12T04:53:30.921Z,1948.00
2018-06-12T04:54:30.943Z,1996.00
2018-06-12T04:55:30.908Z,2128.00
2018-06-12T04:56:30.907Z,2296.00
2018-06-12T04:57:30.905Z,2568.00
2018-06-12T04:58:30.910Z,2764.00
2018-06-12T04:59:30.903Z,2568.00
2018-06-12T05:00:30.900Z,2744.00
2018-06-12T05:01:30.896Z,2924.00
2018-06-12T05:02:30.899Z,2864.00
2018-06-12T05:03:30.896Z,2964.00
2018-06-12T05:04:30.896Z,2872.00
2018-06-12T05:05:30.893Z,2936.00
2018-06-12T05:06:30.888Z,3156.00
2018-06-12T05:07:30.888Z,3356.00
2018-06-12T05:08:30.882Z,3520.00
2018-06-12T05:09:30.880Z,3796.00
2018-06-12T05:10:30.892Z,4084.00
2018-06-12T05:11:30.882Z,4360.00
2018-06-12T05:12:30.880Z,4572.00
2018-06-12T05:13:30.877Z,4820.00
2018-06-12T05:14:30.871Z,4920.00
2018-06-12T05:15:30.868Z,5180.00
2018-06-12T05:16:30.871Z,5020.00
2018-06-12T05:17:30.869Z,4828.00
2018-06-12T05:18:30.865Z,4992.00
2018-06-12T05:19:30.862Z,5364.00
2018-06-12T05:20:30.861Z,6172.00
2018-06-12T05:21:30.859Z,6892.00
2018-06-12T05:22:30.861Z,10480.00
2018-06-12T05:23:30.860Z,11156.00
2018-06-12T05:24:30.857Z,14412.00
2018-06-12T05:25:30.914Z,15040.00
2018-06-12T05:26:30.850Z,8192.00
2018-06-12T05:27:30.848Z,7368.00
2018-06-12T05:28:30.847Z,6956.00
2018-06-12T05:29:30.846Z,6572.00
2018-06-12T05:30:30.851Z,6588.00
2018-06-12T05:31:30.849Z,6932.00
2018-06-12T05:32:30.843Z,6916.00
2018-06-12T05:33:30.841Z,7372.00
2018-06-12T05:34:30.846Z,8020.00
2018-06-12T05:35:30.846Z,7896.00
2018-06-12T05:36:30.843Z,7784.00
2018-06-12T05:37:30.843Z,7744.00
2018-06-12T05:38:30.840Z,8640.00
2018-06-12T05:39:30.837Z,8692.00
2018-06-12T05:40:30.837Z,8820.00
2018-06-12T05:41:30.837Z,7484.00
2018-06-12T05:42:30.841Z,7632.00
2018-06-12T05:43:30.843Z,7864.00
2018-06-12T05:44:30.845Z,8244.00
2018-06-12T05:45:30.841Z,8324.00
2018-06-12T05:46:30.836Z,7668.00
2018-06-12T05:47:30.834Z,7344.00
2018-06-12T05:48:30.839Z,6528.00
2018-06-12T05:49:30.841Z,6364.00
2018-06-12T05:50:30.833Z,5852.00
2018-06-12T05:51:30.832Z,5636.00
2018-06-12T05:52:30.832Z,6140.00
2018-06-12T05:53:30.835Z,6100.00
2018-06-12T05:54:30.836Z,5836.00
2018-06-12T05:55:30.835Z,5740.00
2018-06-12T05:56:30.836Z,6124.00
2018-06-12T05:57:30.836Z,6304.00
2018-06-12T05:58:30.830Z,6192.00
2018-06-12T05:59:30.830Z,6316.00
2018-06-12T06:00:30.830Z,6740.00
2018-06-12T06:01:30.831Z,6972.00
2018-06-12T06:02:30.834Z,7344.00
2018-06-12T06:03:30.834Z,7696.00
2018-06-12T06:04:30.827Z,8048.00
2018-06-12T06:05:30.827Z,8280.00
2018-06-12T06:06:30.833Z,8248.00
2018-06-12T06:07:30.831Z,8240.00
2018-06-12T06:08:30.832Z,8732.00
2018-06-12T06:09:30.833Z,9052.00
2018-06-12T06:10:30.826Z,9444.00
2018-06-12T06:11:30.824Z,9416.00
2018-06-12T06:12:30.823Z,10024.00
2018-06-12T06:13:30.823Z,10188.00
2018-06-12T06:14:30.827Z,10344.00
2018-06-12T06:15:30.829Z,10612.00
2018-06-12T06:16:30.826Z,10608.00
2018-06-12T06:17:30.827Z,11044.00
2018-06-12T06:18:30.822Z,10808.00
2018-06-12T06:19:30.820Z,10652.00
2018-06-12T06:20:30.826Z,10760.00
2018-06-12T06:21:30.825Z,10408.00
2018-06-12T06:22:30.885Z,10040.00
2018-06-12T06:23:30.820Z,9644.00
2018-06-12T06:24:30.819Z,9168.00
2018-06-12T06:25:30.819Z,9068.00
2018-06-12T06:26:30.823Z,8964.00
2018-06-12T06:27:30.824Z,8920.00
2018-06-12T06:28:30.829Z,8812.00
2018-06-12T06:29:30.822Z,8648.00
2018-06-12T06:30:30.818Z,8496.00
2018-06-12T06:31:30.817Z,8324.00
2018-06-12T06:32:30.817Z,8204.00
2018-06-12T06:33:30.817Z,8116.00
2018-06-12T06:34:30.823Z,8048.00
2018-06-12T06:35:30.821Z,7944.00
2018-06-12T06:36:30.817Z,7628.00
2018-06-12T06:37:30.821Z,7516.00
2018-06-12T06:38:30.821Z,7296.00
2018-06-12T06:39:30.821Z,7452.00
2018-06-12T06:40:30.822Z,7224.00
2018-06-12T06:41:30.823Z,7588.00
2018-06-12T06:42:30.815Z,7972.00
2018-06-12T06:43:30.814Z,8056.00
2018-06-12T06:44:30.814Z,8072.00
2018-06-12T06:45:30.816Z,7588.00
2018-06-12T06:46:30.818Z,7568.00
2018-06-12T06:47:30.817Z,7736.00
2018-06-12T06:48:30.818Z,8280.00
2018-06-12T06:49:30.817Z,8192.00
2018-06-12T06:50:30.812Z,8340.00
2018-06-12T06:51:30.811Z,7628.00
2018-06-12T06:52:30.817Z,7812.00
2018-06-12T06:53:30.856Z,7872.00
2018-06-12T06:54:30.811Z,7928.00
2018-06-12T06:55:30.812Z,8208.00
2018-06-12T06:56:30.810Z,8276.00
2018-06-12T06:57:30.809Z,8460.00
2018-06-12T06:58:30.814Z,8208.00
2018-06-12T06:59:30.813Z,8276.00
2018-06-12T07:00:30.814Z,8384.00
2018-06-12T07:01:30.813Z,8528.00
2018-06-12T07:02:30.808Z,8568.00
2018-06-12T07:03:30.809Z,8584.00
2018-06-12T07:04:30.810Z,8580.00
2018-06-12T07:05:30.807Z,9000.00
2018-06-12T07:06:30.813Z,9216.00
2018-06-12T07:07:30.811Z,9364.00
2018-06-12T07:08:30.808Z,9528.00
2018-06-12T07:09:30.805Z,9668.00
2018-06-12T07:10:30.812Z,9640.00
2018-06-12T07:11:30.810Z,9724.00
2018-06-12T07:12:30.809Z,9688.00
2018-06-12T07:13:30.811Z,9644.00
2018-06-12T07:14:30.805Z,9616.00
2018-06-12T07:15:30.804Z,9548.00
2018-06-12T07:16:30.804Z,9424.00
2018-06-12T07:17:30.805Z,9360.00
2018-06-12T07:18:30.808Z,9244.00
2018-06-12T07:19:30.808Z,9244.00
2018-06-12T07:20:30.807Z,9272.00
2018-06-12T07:21:30.809Z,9364.00
2018-06-12T07:22:30.803Z,9524.00
2018-06-12T07:23:30.803Z,9624.00
2018-06-12T07:24:30.810Z,9712.00
2018-06-12T07:25:30.808Z,10056.00
2018-06-12T07:26:30.803Z,10240.00
2018-06-12T07:27:30.802Z,10076.00
2018-06-12T07:28:30.802Z,10508.00
2018-06-12T07:29:30.807Z,11208.00
2018-06-12T07:30:30.807Z,11444.00
2018-06-12T07:31:30.806Z,11872.00
2018-06-12T07:32:30.808Z,12260.00
2018-06-12T07:33:30.808Z,12580.00
2018-06-12T07:34:30.803Z,12928.00
2018-06-12T07:35:30.802Z,13428.00
2018-06-12T07:36:30.803Z,13928.00
2018-06-12T07:37:30.870Z,14228.00
2018-06-12T07:38:30.811Z,14308.00
2018-06-12T07:39:30.808Z,14888.00
2018-06-12T07:40:30.804Z,15352.00
2018-06-12T07:41:30.804Z,15748.00
2018-06-12T07:42:30.809Z,15948.00
2018-06-12T07:43:30.843Z,16256.00
2018-06-12T07:44:30.811Z,17376.00
2018-06-12T07:45:30.811Z,20832.00
2018-06-12T07:46:30.807Z,18752.00
2018-06-12T07:47:30.808Z,19008.00
2018-06-12T07:48:30.810Z,18080.00
2018-06-12T07:49:30.809Z,17664.00
2018-06-12T07:50:30.814Z,17888.00
2018-06-12T07:51:30.815Z,18880.00
2018-06-12T07:52:30.814Z,19648.00
2018-06-12T07:53:30.816Z,16672.00
2018-06-12T07:54:30.814Z,15928.00
2018-06-12T07:55:30.816Z,15744.00
2018-06-12T07:56:30.822Z,15488.00
2018-06-12T07:57:30.820Z,15120.00
2018-06-12T07:58:30.820Z,15048.00
2018-06-12T07:59:30.818Z,15208.00
2018-06-12T08:00:30.822Z,15316.00
2018-06-12T08:01:30.820Z,15312.00
2018-06-12T08:02:30.828Z,15288.00
2018-06-12T08:03:30.830Z,15264.00
2018-06-12T08:04:30.830Z,15312.00
2018-06-12T08:05:30.832Z,17792.00
2018-06-12T08:06:30.827Z,15392.00
2018-06-12T08:07:30.831Z,14664.00
2018-06-12T08:08:30.830Z,14540.00
2018-06-12T08:09:30.832Z,14492.00
2018-06-12T08:10:30.838Z,14612.00
2018-06-12T08:11:30.839Z,14724.00
2018-06-12T08:12:30.836Z,14844.00
2018-06-12T08:13:30.838Z,14948.00
2018-06-12T08:14:30.844Z,15040.00
2018-06-12T08:15:30.846Z,15488.00
2018-06-12T08:16:30.848Z,17056.00
2018-06-12T08:17:30.850Z,17120.00
2018-06-12T08:18:30.863Z,17216.00
2018-06-12T08:19:30.850Z,18016.00
2018-06-12T08:20:30.858Z,18944.00
2018-06-12T08:21:30.853Z,19488.00
2018-06-12T08:22:30.860Z,37632.00
2018-06-12T08:23:30.861Z,24864.00
2018-06-12T08:24:30.863Z,22016.00
2018-06-12T08:25:30.867Z,22272.00
2018-06-12T08:26:30.865Z,25472.00
2018-06-12T08:27:30.865Z,21632.00
2018-06-12T08:28:30.873Z,21024.00
2018-06-12T08:29:30.875Z,20768.00
2018-06-12T08:30:30.936Z,20192.00
2018-06-12T08:31:30.875Z,19552.00
2018-06-12T08:32:30.879Z,19328.00
2018-06-12T08:33:30.883Z,19040.00
2018-06-12T08:34:30.891Z,18656.00
2018-06-12T08:35:30.925Z,18496.00
2018-06-12T08:36:30.895Z,18176.00
2018-06-12T08:37:30.898Z,17952.00
2018-06-12T08:38:30.897Z,16864.00
2018-06-12T08:39:30.899Z,16096.00
2018-06-12T08:40:30.906Z,15392.00
2018-06-12T08:41:30.906Z,15024.00
2018-06-12T08:42:30.914Z,15056.00
2018-06-12T08:43:30.919Z,14860.00
2018-06-12T08:44:30.916Z,14868.00
2018-06-12T08:45:30.919Z,14940.00
2018-06-12T08:46:30.993Z,14860.00
2018-06-12T08:47:30.928Z,14896.00
2018-06-12T08:48:30.930Z,15036.00
2018-06-12T08:49:30.933Z,15132.00
2018-06-12T08:50:30.933Z,15316.00
2018-06-12T08:51:30.934Z,15752.00
2018-06-12T08:52:30.937Z,16448.00
2018-06-12T08:53:30.940Z,15884.00
2018-06-12T08:54:30.948Z,15872.00
2018-06-12T08:55:30.949Z,16256.00
2018-06-12T08:56:30.955Z,16864.00
2018-06-12T08:57:30.959Z,17536.00
2018-06-12T08:58:30.957Z,18176.00
2018-06-12T08:59:30.956Z,18784.00
2018-06-12T09:00:30.963Z,18816.00
2018-06-12T09:01:30.969Z,21440.00
2018-06-12T09:02:30.964Z,22560.00
2018-06-12T09:03:30.965Z,21728.00
2018-06-12T09:04:30.971Z,21024.00
2018-06-12T09:05:30.971Z,17952.00
2018-06-12T09:06:30.978Z,17408.00
2018-06-12T09:07:30.980Z,17216.00
2018-06-12T09:08:30.983Z,17088.00
2018-06-12T09:09:30.987Z,17024.00
2018-06-12T09:10:30.985Z,17088.00
2018-06-12T09:11:30.988Z,17216.00
2018-06-12T09:12:30.990Z,17600.00
2018-06-12T09:13:30.995Z,18304.00
2018-06-12T09:14:31.002Z,19232.00
2018-06-12T09:15:31.008Z,20384.00
2018-06-12T09:16:31.002Z,20064.00
2018-06-12T09:17:31.007Z,21568.00
2018-06-12T09:18:31.016Z,24288.00
2018-06-12T09:19:31.016Z,27840.00
2018-06-12T09:20:31.020Z,30368.00
2018-06-12T09:21:31.021Z,31456.00
2018-06-12T09:22:31.029Z,32672.00
2018-06-12T09:23:31.023Z,33248.00
2018-06-12T09:24:31.028Z,34496.00
2018-06-12T09:25:31.032Z,34656.00
2018-06-12T09:26:31.040Z,32384.00
2018-06-12T09:27:31.044Z,30816.00
2018-06-12T09:28:31.058Z,30880.00
2018-06-12T09:29:31.053Z,29760.00
2018-06-12T09:30:31.053Z,30976.00
2018-06-12T09:31:31.058Z,30240.00
2018-06-12T09:32:31.066Z,31168.00
2018-06-12T09:33:31.075Z,32224.00
2018-06-12T09:34:31.072Z,31968.00
2018-06-12T09:35:31.077Z,29056.00
2018-06-12T09:36:31.081Z,26848.00
2018-06-12T09:37:31.087Z,24832.00
2018-06-12T09:38:31.096Z,24832.00
2018-06-12T09:39:31.101Z,28640.00
2018-06-12T09:40:31.108Z,30176.00
2018-06-12T09:41:31.113Z,30560.00
2018-06-12T09:42:31.113Z,30112.00
2018-06-12T09:43:31.121Z,29568.00
2018-06-12T09:44:31.129Z,28896.00
2018-06-12T09:45:31.131Z,24704.00
2018-06-12T09:46:31.143Z,24352.00
2018-06-12T09:47:31.146Z,27200.00
2018-06-12T09:48:31.149Z,22656.00
2018-06-12T09:49:31.157Z,20000.00
2018-06-12T09:50:31.164Z,20832.00
2018-06-12T09:51:31.169Z,19904.00
2018-06-12T09:52:31.176Z,21344.00
2018-06-12T09:53:31.182Z,22496.00
2018-06-12T09:54:31.183Z,21760.00
2018-06-12T09:55:31.196Z,20640.00
2018-06-12T09:56:31.192Z,19008.00
2018-06-12T09:57:31.198Z,19200.00
2018-06-12T09:58:31.210Z,19776.00
2018-06-12T09:59:31.214Z,19776.00
2018-06-12T10:00:31.221Z,20736.00
2018-06-12T10:01:31.225Z,21280.00
2018-06-12T10:02:31.225Z,22464.00
2018-06-12T10:03:31.231Z,22080.00
2018-06-12T10:04:31.238Z,21888.00
2018-06-12T10:05:31.244Z,20288.00
2018-06-12T10:06:31.247Z,20256.00
2018-06-12T10:07:31.248Z,18336.00
2018-06-12T10:08:31.255Z,18208.00
2018-06-12T10:09:31.259Z,18752.00
2018-06-12T10:10:31.271Z,17568.00
2018-06-12T10:11:31.274Z,17504.00
2018-06-12T10:12:31.282Z,17664.00
2018-06-12T10:13:31.283Z,17312.00
2018-06-12T10:14:31.283Z,17344.00
2018-06-12T10:15:31.287Z,17504.00
2018-06-12T10:16:31.292Z,18080.00
2018-06-12T10:17:31.296Z,18144.00
2018-06-12T10:18:31.305Z,17952.00
2018-06-12T10:19:31.310Z,18016.00
2018-06-12T10:20:31.310Z,18656.00
2018-06-12T10:21:31.314Z,18592.00
2018-06-12T10:22:31.324Z,18656.00
2018-06-12T10:23:31.327Z,18880.00
2018-06-12T10:24:31.333Z,19200.00
2018-06-12T10:25:31.337Z,19072.00
2018-06-12T10:26:31.336Z,19200.00
2018-06-12T10:27:31.340Z,20192.00
2018-06-12T10:28:31.344Z,18592.00
2018-06-12T10:29:31.349Z,18848.00
2018-06-12T10:30:31.361Z,19360.00
2018-06-12T10:31:31.362Z,19360.00
2018-06-12T10:32:31.369Z,19552.00
2018-06-12T10:33:31.370Z,20448.00
2018-06-12T10:34:31.374Z,21824.00
2018-06-12T10:35:31.374Z,22144.00
2018-06-12T10:36:31.383Z,22976.00
2018-06-12T10:37:31.392Z,21728.00
2018-06-12T10:38:31.389Z,20768.00
2018-06-12T10:39:31.392Z,19104.00
2018-06-12T10:40:31.395Z,17984.00
2018-06-12T10:41:31.400Z,17824.00
2018-06-12T10:42:31.409Z,18656.00
2018-06-12T10:43:31.413Z,20160.00
2018-06-12T10:44:31.438Z,21824.00
2018-06-12T10:45:31.415Z,24032.00
2018-06-12T10:46:31.425Z,24480.00
2018-06-12T10:47:31.429Z,22688.00
2018-06-12T10:48:31.436Z,23296.00
2018-06-12T10:49:31.437Z,25376.00
2018-06-12T10:50:31.437Z,25472.00
2018-06-12T10:51:31.441Z,24928.00
2018-06-12T10:52:31.452Z,26016.00
2018-06-12T10:53:31.455Z,25056.00
2018-06-12T10:54:31.456Z,24160.00
2018-06-12T10:55:31.459Z,24288.00
2018-06-12T10:56:31.478Z,23200.00
2018-06-12T10:57:31.469Z,23648.00
2018-06-12T10:58:31.481Z,24832.00
2018-06-12T10:59:31.481Z,24928.00
2018-06-12T11:00:31.487Z,24832.00
2018-06-12T11:01:31.491Z,23264.00
2018-06-12T11:02:31.492Z,23168.00
2018-06-12T11:03:31.522Z,22272.00
2018-06-12T11:04:31.501Z,21216.00
2018-06-12T11:05:31.506Z,19360.00
2018-06-12T11:06:31.516Z,18688.00
2018-06-12T11:07:31.520Z,18080.00
2018-06-12T11:08:31.520Z,17920.00
2018-06-12T11:09:31.525Z,18528.00
2018-06-12T11:10:31.534Z,19936.00
2018-06-12T11:11:31.539Z,21344.00
2018-06-12T11:12:31.542Z,22400.00
2018-06-12T11:13:31.547Z,22368.00
2018-06-12T11:14:31.552Z,23168.00
2018-06-12T11:15:31.552Z,23648.00
2018-06-12T11:16:31.556Z,26880.00
2018-06-12T11:17:31.561Z,28352.00
2018-06-12T11:18:31.574Z,25952.00
2018-06-12T11:19:31.574Z,24928.00
2018-06-12T11:20:31.580Z,22496.00
2018-06-12T11:21:31.584Z,20896.00
2018-06-12T11:22:31.587Z,20512.00
2018-06-12T11:23:31.587Z,20448.00
2018-06-12T11:24:31.596Z,20256.00
2018-06-12T11:25:31.602Z,19648.00
2018-06-12T11:26:31.607Z,18976.00
2018-06-12T11:27:31.605Z,18944.00
2018-06-12T11:28:31.609Z,19360.00
2018-06-12T11:29:31.613Z,20128.00
2018-06-12T11:30:31.622Z,20992.00
2018-06-12T11:31:31.625Z,21280.00
2018-06-12T11:32:31.630Z,20960.00
2018-06-12T11:33:31.637Z,21184.00
2018-06-12T11:34:31.635Z,20704.00
2018-06-12T11:35:31.638Z,20032.00
2018-06-12T11:36:31.642Z,19520.00
2018-06-12T11:37:31.647Z,20416.00
2018-06-12T11:38:31.658Z,20928.00
2018-06-12T11:39:31.659Z,20704.00
2018-06-12T11:40:31.660Z,20192.00
2018-06-12T11:41:31.665Z,19648.00
2018-06-12T11:42:31.673Z,19360.00
2018-06-12T11:43:31.677Z,19008.00
2018-06-12T11:44:31.681Z,18400.00
2018-06-12T11:45:31.686Z,17728.00
2018-06-12T11:46:31.685Z,17248.00
2018-06-12T11:47:31.692Z,16576.00
2018-06-12T11:48:31.697Z,15252.00
2018-06-12T11:49:31.700Z,13936.00
2018-06-12T11:50:31.710Z,12968.00
2018-06-12T11:51:31.713Z,12348.00
2018-06-12T11:52:31.717Z,11912.00
2018-06-12T11:53:31.722Z,11720.00
2018-06-12T11:54:31.730Z,11780.00
2018-06-12T11:55:31.727Z,11972.00
2018-06-12T11:56:31.740Z,12148.00
2018-06-12T11:57:31.743Z,12148.00
2018-06-12T11:58:31.741Z,11932.00
2018-06-12T11:59:31.744Z,11572.00
2018-06-12T12:00:31.750Z,11200.00
2018-06-12T12:01:31.753Z,10788.00
2018-06-12T12:02:31.765Z,10252.00
2018-06-12T12:03:31.767Z,9672.00
2018-06-12T12:04:31.770Z,9136.00
2018-06-12T12:05:31.783Z,8708.00
2018-06-12T12:06:31.774Z,8408.00
2018-06-12T12:07:31.776Z,8232.00
2018-06-12T12:08:31.780Z,8140.00
2018-06-12T12:09:31.790Z,8128.00
2018-06-12T12:10:31.793Z,8164.00
2018-06-12T12:11:31.799Z,8228.00
2018-06-12T12:12:31.794Z,8296.00
2018-06-12T12:13:31.800Z,8376.00
2018-06-12T12:14:31.806Z,8472.00
2018-06-12T12:15:31.809Z,8616.00
2018-06-12T12:16:31.814Z,8800.00
2018-06-12T12:17:31.816Z,8976.00
2018-06-12T12:18:31.816Z,9168.00
2018-06-12T12:19:31.818Z,9384.00